createdAt,value
2018-05-01T00:00:10.889Z,6.50
2018-05-01T00:02:37.148Z,6.50
2018-05-01T00:05:04.262Z,6.50
2018-05-01T00:07:30.598Z,6.50
2018-05-01T00:09:56.854Z,6.60
2018-05-01T00:12:23.944Z,6.60
2018-05-01T00:14:50.335Z,6.60
2018-05-01T00:17:17.439Z,6.60
2018-05-01T00:19:43.701Z,6.60
2018-05-01T00:22:11.389Z,6.60
2018-05-01T00:24:38.360Z,6.60
2018-05-01T00:27:04.577Z,6.60
2018-05-01T00:29:30.809Z,6.60
2018-05-01T00:31:57.081Z,6.60
2018-05-01T00:34:23.418Z,6.60
2018-05-01T00:36:49.622Z,6.60
2018-05-01T00:39:15.854Z,6.60
2018-05-01T00:41:42.074Z,6.50
2018-05-01T00:44:08.290Z,6.50
2018-05-01T00:46:34.532Z,6.50
2018-05-01T00:49:00.760Z,6.50
2018-05-01T00:51:27.038Z,6.50
2018-05-01T00:53:53.318Z,6.50
2018-05-01T00:56:19.569Z,6.50
2018-05-01T00:58:47.282Z,6.50
2018-05-01T01:01:13.489Z,6.50
2018-05-01T01:03:40.523Z,6.50
2018-05-01T01:06:06.705Z,6.50
2018-05-01T01:08:33.016Z,6.50
2018-05-01T01:10:59.307Z,6.50
2018-05-01T01:13:26.341Z,6.60
2018-05-01T01:15:52.556Z,6.60
2018-05-01T01:18:18.753Z,6.60
2018-05-01T01:20:44.972Z,6.60
2018-05-01T01:23:11.212Z,6.60
2018-05-01T01:25:37.469Z,6.50
2018-05-01T01:28:03.776Z,6.50
2018-05-01T01:30:30.046Z,6.50
2018-05-01T01:32:56.331Z,6.60
2018-05-01T01:35:22.353Z,6.60
2018-05-01T01:37:48.383Z,6.60
2018-05-01T01:40:14.480Z,6.60
2018-05-01T01:42:40.489Z,6.50
2018-05-01T01:45:07.244Z,6.50
2018-05-01T01:47:33.322Z,6.50
2018-05-01T01:49:59.512Z,6.50
2018-05-01T01:52:25.539Z,6.40
2018-05-01T01:54:51.564Z,6.50
2018-05-01T01:57:17.603Z,6.50
2018-05-01T01:59:43.662Z,6.50
2018-05-01T02:02:10.408Z,6.50
2018-05-01T02:04:36.454Z,6.50
2018-05-01T02:07:02.522Z,6.50
2018-05-01T02:09:28.616Z,6.50
2018-05-01T02:11:54.644Z,6.50
2018-05-01T02:14:20.671Z,6.40
2018-05-01T02:16:46.777Z,6.40
2018-05-01T02:19:12.820Z,6.40
2018-05-01T02:21:38.847Z,6.40
2018-05-01T02:24:04.928Z,6.40
2018-05-01T02:26:31.701Z,6.40
2018-05-01T02:28:57.706Z,6.40
2018-05-01T02:31:23.735Z,6.30
2018-05-01T02:33:49.772Z,6.30
2018-05-01T02:36:15.813Z,6.30
2018-05-01T02:38:41.864Z,6.30
2018-05-01T02:41:08.739Z,6.30
2018-05-01T02:43:34.695Z,6.30
2018-05-01T02:46:00.707Z,6.30
2018-05-01T02:48:26.735Z,6.30
2018-05-01T02:50:52.748Z,6.40
2018-05-01T02:53:18.773Z,6.30
2018-05-01T02:55:44.853Z,6.30
2018-05-01T02:58:11.620Z,6.30
2018-05-01T03:00:37.648Z,6.40
2018-05-01T03:03:03.657Z,6.40
2018-05-01T03:05:29.677Z,6.40
2018-05-01T03:07:55.716Z,6.40
2018-05-01T03:10:21.769Z,6.40
2018-05-01T03:12:47.819Z,6.40
2018-05-01T03:15:14.630Z,6.40
2018-05-01T03:17:40.644Z,6.40
2018-05-01T03:20:06.669Z,6.40
2018-05-01T03:22:32.668Z,6.40
2018-05-01T03:24:58.692Z,6.40
2018-05-01T03:27:24.745Z,6.40
2018-05-01T03:29:50.878Z,6.40
2018-05-01T03:32:16.889Z,6.40
2018-05-01T03:34:42.910Z,6.40
2018-05-01T03:37:08.925Z,6.40
2018-05-01T03:39:34.914Z,6.40
2018-05-01T03:42:01.673Z,6.40
2018-05-01T03:44:27.709Z,6.50
2018-05-01T03:46:53.745Z,6.50
2018-05-01T03:49:19.780Z,6.50
2018-05-01T03:51:45.793Z,6.50
2018-05-01T03:54:11.812Z,6.50
2018-05-01T03:56:37.788Z,6.50
2018-05-01T03:59:04.602Z,6.40
2018-05-01T04:01:30.646Z,6.40
2018-05-01T04:03:56.747Z,6.40
2018-05-01T04:06:24.278Z,6.50
2018-05-01T04:08:50.304Z,6.50
2018-05-01T04:11:16.321Z,6.40
2018-05-01T04:13:42.388Z,6.40
2018-05-01T04:16:08.518Z,6.40
2018-05-01T04:18:34.548Z,6.50
2018-05-01T04:21:01.337Z,6.50
2018-05-01T04:23:27.411Z,6.40
2018-05-01T04:25:54.208Z,6.50
2018-05-01T04:28:20.225Z,6.50
2018-05-01T04:30:46.244Z,6.50
2018-05-01T04:33:12.268Z,6.50
2018-05-01T04:35:38.265Z,6.50
2018-05-01T04:38:04.340Z,6.60
2018-05-01T04:40:30.421Z,6.60
2018-05-01T04:42:56.444Z,6.60
2018-05-01T04:45:22.487Z,6.60
2018-05-01T04:47:48.480Z,6.60
2018-05-01T04:50:14.508Z,6.70
2018-05-01T04:52:40.536Z,6.60
2018-05-01T04:55:06.604Z,6.60
2018-05-01T04:57:32.660Z,6.70
2018-05-01T04:59:59.428Z,6.70
2018-05-01T05:02:25.444Z,6.70
2018-05-01T05:04:51.494Z,6.70
2018-05-01T05:07:17.511Z,6.80
2018-05-01T05:09:43.520Z,6.80
2018-05-01T05:12:09.556Z,6.80
2018-05-01T05:14:35.657Z,6.80
2018-05-01T05:17:01.664Z,6.90
2018-05-01T05:19:28.402Z,6.90
2018-05-01T05:21:55.168Z,6.90
2018-05-01T05:24:21.204Z,6.90
2018-05-01T05:26:47.212Z,6.90
2018-05-01T05:29:13.298Z,7.00
2018-05-01T05:31:39.346Z,7.00
2018-05-01T05:34:05.393Z,7.00
2018-05-01T05:36:31.396Z,7.10
2018-05-01T05:38:58.156Z,7.10
2018-05-01T05:41:24.412Z,7.10
2018-05-01T05:43:50.432Z,7.10
2018-05-01T05:46:17.244Z,7.10
2018-05-01T05:48:43.314Z,7.10
2018-05-01T05:51:10.096Z,7.30
2018-05-01T05:53:36.163Z,7.30
2018-05-01T05:56:02.214Z,7.30
2018-05-01T05:58:29.015Z,7.30
2018-05-01T06:00:55.042Z,7.30
2018-05-01T06:03:21.070Z,7.20
2018-05-01T06:05:47.112Z,7.20
2018-05-01T06:08:14.053Z,7.30
2018-05-01T06:10:40.836Z,7.40
2018-05-01T06:13:07.608Z,7.40
2018-05-01T06:15:33.636Z,7.40
2018-05-01T06:17:59.678Z,7.40
2018-05-01T06:20:25.692Z,7.40
2018-05-01T06:22:51.930Z,7.40
2018-05-01T06:25:18.767Z,7.40
2018-05-01T06:27:44.763Z,7.40
2018-05-01T06:30:11.018Z,7.50
2018-05-01T06:32:37.117Z,7.40
2018-05-01T06:35:03.144Z,7.40
2018-05-01T06:37:29.219Z,7.40
2018-05-01T06:39:55.232Z,7.50
2018-05-01T06:42:21.319Z,7.50
2018-05-01T06:44:47.319Z,7.60
2018-05-01T06:47:13.544Z,7.70
2018-05-01T06:49:39.672Z,7.80
2018-05-01T06:52:05.688Z,7.90
2018-05-01T06:54:32.448Z,7.90
2018-05-01T06:56:59.393Z,8.30
2018-05-01T06:59:25.425Z,8.30
2018-05-01T07:01:51.493Z,8.40
2018-05-01T07:04:18.300Z,8.50
2018-05-01T07:06:44.293Z,8.50
2018-05-01T07:09:10.340Z,8.90
2018-05-01T07:11:36.415Z,9.10
2018-05-01T07:14:02.440Z,9.00
2018-05-01T07:16:29.435Z,9.10
2018-05-01T07:18:55.644Z,9.10
2018-05-01T07:21:21.691Z,9.30
2018-05-01T07:23:47.719Z,9.30
2018-05-01T07:26:13.769Z,9.60
2018-05-01T07:28:40.558Z,9.40
2018-05-01T07:31:06.626Z,9.40
2018-05-01T07:33:33.607Z,9.50
2018-05-01T07:35:59.909Z,9.40
2018-05-01T07:38:27.082Z,9.90
2018-05-01T07:40:53.169Z,9.60
2018-05-01T07:43:19.222Z,9.60
2018-05-01T07:45:45.981Z,10.10
2018-05-01T07:48:12.033Z,10.10
2018-05-01T07:50:39.613Z,10.00
2018-05-01T07:53:06.913Z,10.20
2018-05-01T07:55:33.433Z,10.20
2018-05-01T07:58:00.947Z,10.10
2018-05-01T08:00:27.781Z,10.40
2018-05-01T08:02:53.883Z,10.40
2018-05-01T08:05:19.954Z,10.60
2018-05-01T08:07:46.059Z,10.50
2018-05-01T08:10:12.849Z,10.40
2018-05-01T08:12:40.636Z,10.80
2018-05-01T08:15:06.942Z,10.80
2018-05-01T08:17:33.128Z,11.00
2018-05-01T08:20:00.301Z,10.70
2018-05-01T08:22:26.345Z,10.70
2018-05-01T08:24:52.631Z,11.40
2018-05-01T08:27:18.737Z,11.80
2018-05-01T08:29:44.973Z,12.50
2018-05-01T08:32:11.870Z,12.10
2018-05-01T08:34:38.008Z,12.10
2018-05-01T08:37:04.394Z,11.90
2018-05-01T08:39:31.955Z,11.90
2018-05-01T08:41:58.850Z,12.30
2018-05-01T08:44:24.910Z,12.30
2018-05-01T08:46:51.814Z,12.70
2018-05-01T08:49:18.393Z,12.60
2018-05-01T08:51:45.230Z,12.00
2018-05-01T08:54:11.343Z,11.90
2018-05-01T08:56:37.417Z,12.00
2018-05-01T08:59:03.562Z,12.30
2018-05-01T09:01:29.669Z,12.30
2018-05-01T09:03:55.721Z,12.30
2018-05-01T09:06:22.581Z,12.70
2018-05-01T09:08:48.689Z,12.70
2018-05-01T09:11:14.748Z,12.70
2018-05-01T09:13:41.772Z,12.50
2018-05-01T09:16:07.828Z,12.50
2018-05-01T09:18:34.670Z,12.70
2018-05-01T09:21:00.785Z,12.70
2018-05-01T09:23:26.911Z,12.90
2018-05-01T09:25:53.120Z,12.80
2018-05-01T09:28:19.310Z,12.50
2018-05-01T09:30:45.382Z,12.30
2018-05-01T09:33:11.481Z,12.50
2018-05-01T09:35:37.780Z,12.50
2018-05-01T09:38:03.923Z,12.40
2018-05-01T09:40:29.999Z,12.60
2018-05-01T09:42:56.098Z,12.40
2018-05-01T09:45:22.231Z,12.40
2018-05-01T09:47:48.630Z,12.60
2018-05-01T09:50:14.792Z,12.30
2018-05-01T09:52:41.053Z,12.50
2018-05-01T09:55:08.065Z,12.60
2018-05-01T09:57:34.385Z,12.60
2018-05-01T10:00:00.722Z,12.60
2018-05-01T10:02:28.008Z,13.20
2018-05-01T10:04:54.438Z,13.20
2018-05-01T10:07:21.761Z,12.40
2018-05-01T10:09:48.836Z,12.70
2018-05-01T10:12:15.911Z,12.70
2018-05-01T10:14:42.169Z,12.70
2018-05-01T10:17:08.459Z,12.80
2018-05-01T10:19:34.729Z,12.60
2018-05-01T10:22:03.986Z,12.50
2018-05-01T10:24:31.146Z,12.40
2018-05-01T10:26:57.495Z,12.40
2018-05-01T10:29:24.726Z,12.80
2018-05-01T10:31:51.095Z,12.80
2018-05-01T10:34:17.350Z,12.70
2018-05-01T10:36:44.425Z,12.70
2018-05-01T10:39:25.754Z,12.70
2018-05-01T10:41:52.025Z,12.80
2018-05-01T10:44:19.470Z,12.50
2018-05-01T10:46:45.895Z,12.50
2018-05-01T10:49:12.237Z,12.40
2018-05-01T10:51:39.335Z,12.30
2018-05-01T10:54:07.118Z,12.30
2018-05-01T10:56:33.765Z,12.30
2018-05-01T10:59:00.363Z,12.50
2018-05-01T11:01:26.731Z,12.70
2018-05-01T11:03:53.846Z,12.60
2018-05-01T11:06:20.155Z,12.60
2018-05-01T11:08:46.531Z,12.50
2018-05-01T11:11:12.893Z,12.40
2018-05-01T11:13:40.018Z,13.10
2018-05-01T11:16:06.390Z,13.10
2018-05-01T11:18:32.755Z,13.10
2018-05-01T11:20:59.084Z,12.90
2018-05-01T11:23:25.558Z,13.20
2018-05-01T11:25:52.583Z,13.50
2018-05-01T11:28:18.888Z,13.50
2018-05-01T11:30:45.218Z,13.20
2018-05-01T11:33:11.589Z,13.40
2018-05-01T11:35:38.045Z,13.90
2018-05-01T11:38:05.094Z,14.30
2018-05-01T11:40:32.254Z,14.50
2018-05-01T11:42:59.326Z,14.40
2018-05-01T11:45:25.630Z,14.40
2018-05-01T11:47:52.402Z,14.80
2018-05-01T11:50:18.909Z,14.60
2018-05-01T11:52:45.150Z,14.70
2018-05-01T11:55:11.496Z,15.20
2018-05-01T11:57:37.804Z,15.30
2018-05-01T12:00:04.138Z,15.10
2018-05-01T12:02:30.382Z,14.40
2018-05-01T12:04:56.597Z,14.50
2018-05-01T12:07:22.896Z,14.70
2018-05-01T12:09:49.166Z,14.80
2018-05-01T12:12:15.410Z,14.70
2018-05-01T12:14:41.761Z,14.70
2018-05-01T12:17:08.756Z,14.90
2018-05-01T12:19:34.960Z,14.90
2018-05-01T12:22:02.127Z,15.70
2018-05-01T12:24:28.376Z,15.70
2018-05-01T12:26:54.674Z,15.90
2018-05-01T12:29:21.754Z,16.10
2018-05-01T12:31:48.141Z,16.10
2018-05-01T12:34:14.453Z,15.80
2018-05-01T12:36:41.499Z,16.00
2018-05-01T12:39:07.697Z,15.90
2018-05-01T12:41:34.055Z,15.50
2018-05-01T12:44:00.505Z,15.70
2018-05-01T12:46:27.547Z,16.00
2018-05-01T12:48:54.575Z,16.40
2018-05-01T12:51:21.818Z,16.10
2018-05-01T12:53:48.263Z,16.10
2018-05-01T12:56:14.508Z,15.90
2018-05-01T12:58:41.528Z,16.50
2018-05-01T13:01:07.769Z,16.40
2018-05-01T13:03:34.905Z,15.70
2018-05-01T13:06:01.187Z,15.70
2018-05-01T13:08:27.460Z,15.40
2018-05-01T13:10:53.741Z,15.80
2018-05-01T13:13:20.155Z,15.60
2018-05-01T13:15:46.408Z,16.00
2018-05-01T13:18:12.637Z,16.10
2018-05-01T13:20:38.937Z,16.20
2018-05-01T13:23:05.118Z,16.10
2018-05-01T13:25:31.584Z,15.90
2018-05-01T13:27:57.888Z,16.30
2018-05-01T13:30:24.382Z,16.60
2018-05-01T13:32:50.633Z,16.40
2018-05-01T13:35:16.859Z,16.30
2018-05-01T13:37:43.139Z,15.90
2018-05-01T13:40:09.668Z,15.90
2018-05-01T13:42:37.020Z,16.00
2018-05-01T13:45:04.456Z,16.00
2018-05-01T13:47:31.067Z,15.70
2018-05-01T13:49:58.194Z,16.20
2018-05-01T13:52:26.320Z,16.10
2018-05-01T13:54:53.314Z,15.70
2018-05-01T13:57:19.573Z,15.60
2018-05-01T13:59:45.819Z,15.70
2018-05-01T14:02:12.165Z,15.70
2018-05-01T14:04:38.917Z,15.40
2018-05-01T14:07:05.210Z,14.80
2018-05-01T14:09:31.666Z,14.50
2018-05-01T14:11:58.805Z,14.80
2018-05-01T14:14:25.041Z,14.80
2018-05-01T14:16:51.335Z,14.90
2018-05-01T14:19:18.675Z,14.90
2018-05-01T14:21:45.238Z,14.60
2018-05-01T14:24:12.812Z,14.50
2018-05-01T14:26:39.057Z,14.60
2018-05-01T14:29:05.312Z,14.80
2018-05-01T14:31:31.566Z,15.10
2018-05-01T14:33:57.884Z,15.40
2018-05-01T14:36:24.197Z,15.60
2018-05-01T14:38:51.106Z,15.40
2018-05-01T14:41:19.180Z,15.40
2018-05-01T14:43:45.440Z,15.30
2018-05-01T14:46:12.472Z,15.20
2018-05-01T14:48:39.466Z,15.30
2018-05-01T14:51:06.522Z,15.20
2018-05-01T14:53:32.788Z,15.10
2018-05-01T14:55:59.174Z,15.30
2018-05-01T14:58:25.536Z,15.10
2018-05-01T15:00:53.010Z,15.00
2018-05-01T15:03:20.047Z,15.20
2018-05-01T15:05:46.309Z,15.10
2018-05-01T15:08:12.576Z,15.10
2018-05-01T15:10:38.870Z,15.10
2018-05-01T15:13:05.206Z,15.00
2018-05-01T15:15:31.470Z,14.80
2018-05-01T15:17:58.517Z,14.80
2018-05-01T15:20:24.852Z,14.80
2018-05-01T15:22:51.210Z,14.80
2018-05-01T15:25:17.615Z,14.90
2018-05-01T15:27:43.896Z,14.70
2018-05-01T15:30:10.287Z,14.90
2018-05-01T15:32:36.544Z,15.00
2018-05-01T15:35:02.840Z,15.20
2018-05-01T15:37:29.246Z,15.30
2018-05-01T15:39:55.478Z,15.30
2018-05-01T15:42:21.684Z,15.10
2018-05-01T15:44:48.793Z,14.90
2018-05-01T15:47:15.803Z,14.90
2018-05-01T15:49:42.978Z,15.00
2018-05-01T15:52:09.263Z,15.00
2018-05-01T15:54:35.523Z,15.10
2018-05-01T15:57:01.815Z,15.20
2018-05-01T15:59:28.092Z,15.10
2018-05-01T16:01:54.481Z,15.30
2018-05-01T16:04:21.821Z,15.40
2018-05-01T16:06:49.940Z,15.40
2018-05-01T16:09:16.258Z,15.40
2018-05-01T16:11:42.810Z,15.30
2018-05-01T16:14:10.889Z,14.80
2018-05-01T16:16:51.433Z,14.70
2018-05-01T16:19:19.223Z,14.50
2018-05-01T16:21:45.488Z,14.50
2018-05-01T16:24:11.768Z,14.20
2018-05-01T16:26:38.063Z,14.20
2018-05-01T16:29:04.363Z,14.30
2018-05-01T16:31:31.368Z,14.30
2018-05-01T16:33:57.719Z,14.30
2018-05-01T16:36:24.837Z,14.50
2018-05-01T16:38:51.115Z,14.40
2018-05-01T16:41:18.088Z,14.40
2018-05-01T16:43:44.486Z,14.40
2018-05-01T16:46:11.810Z,14.20
2018-05-01T16:48:38.124Z,14.20
2018-05-01T16:51:05.442Z,14.10
2018-05-01T16:53:32.649Z,14.10
2018-05-01T16:55:58.898Z,14.10
2018-05-01T16:58:25.947Z,13.90
2018-05-01T17:00:53.100Z,13.90
2018-05-01T17:03:20.135Z,14.00
2018-05-01T17:05:47.402Z,14.00
2018-05-01T17:08:14.607Z,14.00
2018-05-01T17:10:40.862Z,14.00
2018-05-01T17:13:07.530Z,14.10
2018-05-01T17:15:33.816Z,13.90
2018-05-01T17:18:00.144Z,13.90
2018-05-01T17:20:26.450Z,13.80
2018-05-01T17:22:53.625Z,13.60
2018-05-01T17:25:20.342Z,13.60
2018-05-01T17:27:48.600Z,13.40
2018-05-01T17:30:15.464Z,13.40
2018-05-01T17:32:41.737Z,13.40
2018-05-01T17:35:09.029Z,13.50
2018-05-01T17:37:35.306Z,13.50
2018-05-01T17:40:01.812Z,13.50
2018-05-01T17:42:28.139Z,13.60
2018-05-01T17:44:55.195Z,13.50
2018-05-01T17:47:21.847Z,13.50
2018-05-01T17:49:48.955Z,13.50
2018-05-01T17:52:17.271Z,13.50
2018-05-01T17:54:43.520Z,13.50
2018-05-01T17:57:10.546Z,13.30
2018-05-01T17:59:37.551Z,13.30
2018-05-01T18:02:03.893Z,13.30
2018-05-01T18:04:30.424Z,13.40
2018-05-01T18:06:57.951Z,13.30
2018-05-01T18:09:24.804Z,13.30
2018-05-01T18:11:51.080Z,13.30
2018-05-01T18:14:18.101Z,13.20
2018-05-01T18:16:44.353Z,13.10
2018-05-01T18:19:11.120Z,13.20
2018-05-01T18:21:38.422Z,13.10
2018-05-01T18:24:04.635Z,13.10
2018-05-01T18:26:30.952Z,13.10
2018-05-01T18:28:57.243Z,13.20
2018-05-01T18:31:23.550Z,13.10
2018-05-01T18:33:49.906Z,13.10
2018-05-01T18:36:16.150Z,13.10
2018-05-01T18:38:42.453Z,13.00
2018-05-01T18:41:09.470Z,13.10
2018-05-01T18:43:35.790Z,13.10
2018-05-01T18:46:02.073Z,13.10
2018-05-01T18:48:29.394Z,13.00
2018-05-01T18:51:02.833Z,13.00
2018-05-01T18:53:29.902Z,13.00
2018-05-01T18:55:56.449Z,13.00
2018-05-01T18:58:22.674Z,12.90
2018-05-01T19:00:48.921Z,12.90
2018-05-01T19:03:15.173Z,12.80
2018-05-01T19:05:42.936Z,12.80
2018-05-01T19:08:09.329Z,12.80
2018-05-01T19:10:35.724Z,12.80
2018-05-01T19:13:02.057Z,12.70
2018-05-01T19:15:28.493Z,12.70
2018-05-01T19:17:54.689Z,12.70
2018-05-01T19:20:20.974Z,12.70
2018-05-01T19:22:47.268Z,12.60
2018-05-01T19:25:14.281Z,12.50
2018-05-01T19:27:41.399Z,12.50
2018-05-01T19:30:07.775Z,12.50
2018-05-01T19:32:35.015Z,12.40
2018-05-01T19:35:02.578Z,12.40
2018-05-01T19:37:29.083Z,12.40
2018-05-01T19:39:55.326Z,12.40
2018-05-01T19:42:21.600Z,12.30
2018-05-01T19:44:48.838Z,12.30
2018-05-01T19:47:15.318Z,12.30
2018-05-01T19:49:41.692Z,12.30
2018-05-01T19:52:13.031Z,12.20
2018-05-01T19:54:40.090Z,12.10
2018-05-01T19:57:07.741Z,12.10
2018-05-01T19:59:33.975Z,12.10
2018-05-01T20:02:00.240Z,12.00
2018-05-01T20:04:27.210Z,11.80
2018-05-01T20:06:53.488Z,11.80
2018-05-01T20:09:19.750Z,11.80
2018-05-01T20:11:46.549Z,11.80
2018-05-01T20:14:13.207Z,11.80
2018-05-01T20:16:39.472Z,11.80
2018-05-01T20:19:05.709Z,11.70
2018-05-01T20:21:31.929Z,11.60
2018-05-01T20:23:59.045Z,11.70
2018-05-01T20:26:26.162Z,11.60
2018-05-01T20:28:52.359Z,11.60
2018-05-01T20:31:18.725Z,11.60
2018-05-01T20:33:46.012Z,11.40
2018-05-01T20:36:12.272Z,11.40
2018-05-01T20:38:39.460Z,11.30
2018-05-01T20:41:05.780Z,11.30
2018-05-01T20:43:32.091Z,11.30
2018-05-01T20:45:58.331Z,11.30
2018-05-01T20:48:24.631Z,11.20
2018-05-01T20:50:51.023Z,11.20
2018-05-01T20:53:17.637Z,11.20
2018-05-01T20:55:44.171Z,11.20
2018-05-01T20:58:11.194Z,11.20
2018-05-01T21:00:37.457Z,11.20
2018-05-01T21:03:04.428Z,11.10
2018-05-01T21:05:31.434Z,11.00
2018-05-01T21:07:58.119Z,11.00
2018-05-01T21:10:24.824Z,11.00
2018-05-01T21:12:52.059Z,11.00
2018-05-01T21:15:18.480Z,10.90
2018-05-01T21:17:45.551Z,10.90
2018-05-01T21:20:11.793Z,11.00
2018-05-01T21:22:38.029Z,10.90
2018-05-01T21:25:04.999Z,10.80
2018-05-01T21:27:31.982Z,10.70
2018-05-01T21:29:58.298Z,10.70
2018-05-01T21:32:24.602Z,10.70
2018-05-01T21:34:51.880Z,10.60
2018-05-01T21:37:18.123Z,10.70
2018-05-01T21:39:44.369Z,10.60
2018-05-01T21:42:10.995Z,10.60
2018-05-01T21:44:37.220Z,10.50
2018-05-01T21:47:03.479Z,10.50
2018-05-01T21:49:30.533Z,10.50
2018-05-01T21:51:57.766Z,10.50
2018-05-01T21:54:24.036Z,10.50
2018-05-01T21:56:50.270Z,10.50
2018-05-01T21:59:17.250Z,10.50
2018-05-01T22:01:43.483Z,10.50
2018-05-01T22:04:09.705Z,10.30
2018-05-01T22:06:36.052Z,10.00
2018-05-01T22:09:02.862Z,9.90
2018-05-01T22:11:29.080Z,9.80
2018-05-01T22:13:55.398Z,9.60
2018-05-01T22:16:21.612Z,9.50
2018-05-01T22:18:47.833Z,9.40
2018-05-01T22:21:14.105Z,9.20
2018-05-01T22:23:40.450Z,9.10
2018-05-01T22:26:06.825Z,9.00
2018-05-01T22:28:33.130Z,8.90
2018-05-01T22:30:59.403Z,8.90
2018-05-01T22:33:25.656Z,8.80
2018-05-01T22:35:51.923Z,8.80
2018-05-01T22:38:18.912Z,8.60
2018-05-01T22:40:45.165Z,8.60
2018-05-01T22:43:11.466Z,8.50
2018-05-01T22:45:37.737Z,8.40
2018-05-01T22:48:03.976Z,8.40
2018-05-01T22:50:30.977Z,8.60
2018-05-01T22:52:57.243Z,8.50
2018-05-01T22:55:23.476Z,8.50
2018-05-01T22:57:50.464Z,8.40
2018-05-01T23:00:18.633Z,8.40
2018-05-01T23:02:44.925Z,8.40
2018-05-01T23:05:11.215Z,8.40
2018-05-01T23:07:38.277Z,8.20
2018-05-01T23:10:05.317Z,8.20
2018-05-01T23:12:31.541Z,8.20
2018-05-01T23:14:57.848Z,8.20
2018-05-01T23:17:24.066Z,8.20
2018-05-01T23:19:50.296Z,8.20
2018-05-01T23:22:16.622Z,8.20
2018-05-01T23:24:42.926Z,8.30
2018-05-01T23:27:09.189Z,8.30
2018-05-01T23:29:35.395Z,8.40
2018-05-01T23:32:02.390Z,8.40
2018-05-01T23:34:35.603Z,8.40
2018-05-01T23:37:01.844Z,8.40
2018-05-01T23:39:28.056Z,8.40
2018-05-01T23:41:54.373Z,8.40
2018-05-01T23:44:20.588Z,8.40
2018-05-01T23:46:46.844Z,8.30
2018-05-01T23:49:13.139Z,8.40
2018-05-01T23:51:39.367Z,8.40
2018-05-01T23:54:05.585Z,8.30
2018-05-01T23:56:31.841Z,8.20
2018-05-01T23:58:58.092Z,8.10
